createdAt,value
2022-08-30T00:01:29.135Z,45.10
2022-08-30T00:03:58.462Z,44.41
2022-08-30T00:06:27.073Z,44.59
2022-08-30T00:08:55.705Z,45.04
2022-08-30T00:11:26.060Z,44.85
2022-08-30T00:13:55.416Z,45.41
2022-08-30T00:16:23.347Z,45.19
2022-08-30T00:18:52.026Z,45.34
2022-08-30T00:21:19.421Z,45.15
2022-08-30T00:23:46.678Z,45.02
2022-08-30T00:26:13.962Z,44.67
2022-08-30T00:28:41.259Z,45.02
2022-08-30T00:31:08.665Z,44.65
2022-08-30T00:33:36.236Z,44.82
2022-08-30T00:36:03.581Z,45.08
2022-08-30T00:38:30.885Z,44.67
2022-08-30T00:40:59.881Z,45.47
2022-08-30T00:43:30.420Z,45.54
2022-08-30T00:45:58.187Z,45.52
2022-08-30T00:48:25.915Z,45.26
2022-08-30T00:50:56.460Z,45.70
2022-08-30T00:53:27.384Z,46.37
2022-08-30T00:55:55.329Z,45.88
2022-08-30T00:58:26.172Z,45.27
2022-08-30T01:00:55.403Z,45.83
2022-08-30T01:03:23.093Z,45.67
2022-08-30T01:05:51.657Z,46.03
2022-08-30T01:08:22.186Z,45.97
2022-08-30T01:10:50.747Z,45.73
2022-08-30T01:13:18.188Z,45.96
2022-08-30T01:15:46.272Z,46.51
2022-08-30T01:18:17.219Z,45.76
2022-08-30T01:21:04.815Z,46.12
2022-08-30T01:23:32.517Z,46.21
2022-08-30T01:26:00.698Z,46.30
2022-08-30T01:28:28.588Z,46.36
2022-08-30T01:30:56.206Z,46.38
2022-08-30T01:33:24.916Z,46.62
2022-08-30T01:35:58.358Z,46.99
2022-08-30T01:38:32.663Z,47.11
2022-08-30T01:41:19.896Z,46.86
2022-08-30T01:43:47.784Z,46.99
2022-08-30T01:46:16.998Z,46.96
2022-08-30T01:48:50.221Z,46.71
2022-08-30T01:51:21.969Z,46.25
2022-08-30T01:53:49.346Z,46.57
2022-08-30T01:56:16.689Z,46.27
2022-08-30T01:58:44.227Z,46.23
2022-08-30T02:01:13.975Z,47.35
2022-08-30T02:03:43.367Z,48.06
2022-08-30T02:06:14.339Z,47.84
2022-08-30T02:08:42.227Z,48.00
2022-08-30T02:11:09.775Z,47.87
2022-08-30T02:13:37.869Z,47.72
2022-08-30T02:16:07.665Z,47.57
2022-08-30T02:18:36.844Z,47.69
2022-08-30T02:21:04.260Z,48.13
2022-08-30T02:23:31.815Z,48.28
2022-08-30T02:25:59.561Z,47.68
2022-08-30T02:28:26.950Z,47.16
2022-08-30T02:30:54.293Z,47.71
2022-08-30T02:33:21.859Z,47.45
2022-08-30T02:35:49.141Z,47.31
2022-08-30T02:38:16.425Z,47.40
2022-08-30T02:40:47.504Z,47.38
2022-08-30T02:43:15.130Z,47.49
2022-08-30T02:45:42.655Z,47.25
2022-08-30T02:48:10.179Z,47.03
2022-08-30T02:50:45.529Z,46.76
2022-08-30T02:53:16.215Z,46.61
2022-08-30T02:55:44.244Z,50.11
2022-08-30T02:58:11.983Z,53.82
2022-08-30T03:00:41.307Z,53.95
2022-08-30T03:03:09.918Z,56.14
2022-08-30T03:05:39.706Z,55.54
2022-08-30T03:08:08.308Z,53.86
2022-08-30T03:10:36.257Z,56.65
2022-08-30T03:13:05.303Z,57.88
2022-08-30T03:15:32.585Z,60.49
2022-08-30T03:17:59.907Z,62.21
2022-08-30T03:20:28.542Z,62.65
2022-08-30T03:22:55.887Z,62.87
2022-08-30T03:25:23.523Z,63.52
2022-08-30T03:27:50.862Z,65.02
2022-08-30T03:30:19.679Z,65.83
2022-08-30T03:32:47.248Z,65.67
2022-08-30T03:35:16.259Z,66.14
2022-08-30T03:37:43.897Z,66.44
2022-08-30T03:40:12.993Z,67.26
2022-08-30T03:42:41.397Z,66.53
2022-08-30T03:45:12.604Z,67.72
2022-08-30T03:47:41.050Z,67.46
2022-08-30T03:50:10.364Z,67.42
2022-08-30T03:52:37.703Z,66.03
2022-08-30T03:55:06.180Z,65.11
2022-08-30T03:57:33.864Z,63.45
2022-08-30T04:00:05.177Z,63.20
2022-08-30T04:02:39.145Z,62.50
2022-08-30T04:05:07.374Z,63.79
2022-08-30T04:07:34.677Z,63.50
2022-08-30T04:10:03.991Z,63.87
2022-08-30T04:12:31.337Z,63.97
2022-08-30T04:14:58.942Z,63.83
2022-08-30T04:17:26.240Z,64.04
2022-08-30T04:19:53.661Z,63.96
2022-08-30T04:22:21.987Z,64.44
2022-08-30T04:24:49.539Z,64.63
2022-08-30T04:27:20.555Z,63.94
2022-08-30T04:29:48.157Z,63.31
2022-08-30T04:32:16.639Z,62.68
2022-08-30T04:34:43.980Z,61.93
2022-08-30T04:37:11.646Z,62.28
2022-08-30T04:39:39.540Z,61.67
2022-08-30T04:42:06.999Z,62.36
2022-08-30T04:44:34.868Z,62.95
2022-08-30T04:47:02.450Z,62.05
2022-08-30T04:49:32.389Z,62.48
2022-08-30T04:51:59.831Z,62.69
2022-08-30T04:54:27.179Z,62.17
2022-08-30T04:56:54.634Z,62.68
2022-08-30T04:59:22.135Z,61.99
2022-08-30T05:01:49.526Z,62.08
2022-08-30T05:04:16.813Z,61.91
2022-08-30T05:06:44.450Z,61.53
2022-08-30T05:09:11.992Z,61.37
2022-08-30T05:11:39.440Z,62.01
2022-08-30T05:14:07.996Z,61.49
2022-08-30T05:16:35.588Z,61.08
2022-08-30T05:19:02.902Z,61.08
2022-08-30T05:21:30.198Z,60.66
2022-08-30T05:24:00.108Z,60.31
2022-08-30T05:26:30.245Z,61.35
2022-08-30T05:28:57.768Z,61.42
2022-08-30T05:31:31.277Z,60.31
2022-08-30T05:33:59.252Z,61.37
2022-08-30T05:36:30.244Z,60.85
2022-08-30T05:38:57.877Z,60.85
2022-08-30T05:41:26.420Z,60.39
2022-08-30T05:43:55.502Z,60.21
2022-08-30T05:46:22.950Z,59.25
2022-08-30T05:48:51.251Z,60.00
2022-08-30T05:51:23.784Z,59.92
2022-08-30T05:53:53.160Z,58.60
2022-08-30T05:56:24.830Z,58.75
2022-08-30T05:58:53.755Z,58.44
2022-08-30T06:01:24.771Z,58.20
2022-08-30T06:03:53.653Z,58.42
2022-08-30T06:06:21.658Z,58.58
2022-08-30T06:08:49.552Z,58.71
2022-08-30T06:11:19.618Z,58.45
2022-08-30T06:13:47.689Z,57.82
2022-08-30T06:16:17.803Z,58.12
2022-08-30T06:18:45.279Z,57.61
2022-08-30T06:21:22.162Z,59.41
2022-08-30T06:23:49.628Z,59.13
2022-08-30T06:26:16.956Z,59.29
2022-08-30T06:28:44.592Z,58.17
2022-08-30T06:31:14.437Z,57.51
2022-08-30T06:33:42.479Z,58.16
2022-08-30T06:36:12.722Z,57.47
2022-08-30T06:38:40.128Z,57.94
2022-08-30T06:41:08.500Z,56.22
2022-08-30T06:43:35.933Z,57.72
2022-08-30T06:46:05.285Z,57.55
2022-08-30T06:48:32.875Z,59.23
2022-08-30T06:51:00.171Z,59.50
2022-08-30T06:53:29.670Z,58.82
2022-08-30T06:56:05.501Z,58.51
2022-08-30T06:58:33.402Z,57.84
2022-08-30T07:01:01.071Z,57.34
2022-08-30T07:03:28.559Z,57.32
2022-08-30T07:05:56.911Z,57.02
2022-08-30T07:08:24.836Z,56.60
2022-08-30T07:10:54.628Z,56.40
2022-08-30T07:13:24.438Z,55.20
2022-08-30T07:15:52.327Z,54.97
2022-08-30T07:18:38.735Z,55.12
2022-08-30T07:21:11.651Z,54.95
2022-08-30T07:23:39.098Z,55.38
2022-08-30T07:26:08.575Z,54.53
2022-08-30T07:28:41.331Z,55.11
2022-08-30T07:31:09.897Z,54.67
2022-08-30T07:33:38.085Z,54.69
2022-08-30T07:36:06.180Z,54.54
2022-08-30T07:38:33.882Z,55.09
2022-08-30T07:41:01.368Z,55.92
2022-08-30T07:43:29.381Z,55.99
2022-08-30T07:46:04.335Z,55.86
2022-08-30T07:48:31.957Z,54.91
2022-08-30T07:51:05.163Z,54.78
2022-08-30T07:53:32.810Z,54.78
2022-08-30T07:56:00.860Z,54.15
2022-08-30T07:58:34.138Z,54.78
2022-08-30T08:01:02.053Z,54.59
2022-08-30T08:03:29.931Z,54.30
2022-08-30T08:05:57.795Z,54.35
2022-08-30T08:08:26.230Z,54.45
2022-08-30T08:10:53.477Z,54.56
2022-08-30T08:13:20.984Z,54.68
2022-08-30T08:15:48.596Z,54.20
2022-08-30T08:18:16.102Z,53.83
2022-08-30T08:20:43.596Z,53.64
2022-08-30T08:23:10.811Z,53.63
2022-08-30T08:25:40.028Z,53.58
2022-08-30T08:28:08.176Z,53.75
2022-08-30T08:30:36.741Z,53.97
2022-08-30T08:33:05.333Z,54.92
2022-08-30T08:35:33.260Z,54.25
2022-08-30T08:38:00.958Z,54.77
2022-08-30T08:40:29.565Z,54.00
2022-08-30T08:43:02.497Z,53.02
2022-08-30T08:45:35.742Z,53.02
2022-08-30T08:48:22.639Z,52.63
2022-08-30T08:51:08.630Z,52.34
2022-08-30T08:53:46.277Z,52.54
2022-08-30T08:56:17.195Z,53.40
2022-08-30T08:58:48.646Z,53.69
2022-08-30T09:01:18.543Z,53.45
2022-08-30T09:03:47.472Z,53.72
2022-08-30T09:06:51.411Z,53.50
2022-08-30T09:09:22.325Z,52.15
2022-08-30T09:11:49.920Z,51.13
2022-08-30T09:14:20.660Z,50.38
2022-08-30T09:17:09.392Z,49.36
2022-08-30T09:20:07.978Z,49.01
2022-08-30T09:22:40.377Z,48.24
2022-08-30T09:25:17.076Z,48.58
2022-08-30T09:27:46.475Z,49.55
2022-08-30T09:30:21.482Z,50.21
2022-08-30T09:33:01.178Z,49.15
2022-08-30T09:35:43.264Z,49.53
2022-08-30T09:41:03.126Z,49.34
2022-08-30T09:43:32.613Z,48.79
2022-08-30T09:46:02.451Z,48.37
2022-08-30T09:48:37.816Z,47.63
2022-08-30T09:51:11.544Z,47.57
2022-08-30T09:53:40.707Z,48.06
2022-08-30T09:56:34.178Z,47.33
2022-08-30T09:59:26.338Z,48.62
2022-08-30T10:02:06.225Z,48.71
2022-08-30T10:04:52.013Z,48.05
2022-08-30T10:07:37.534Z,46.83
2022-08-30T10:10:22.649Z,46.58
2022-08-30T10:13:11.087Z,46.48
2022-08-30T10:15:50.253Z,47.54
2022-08-30T10:18:32.796Z,47.11
2022-08-30T10:21:27.225Z,47.80
2022-08-30T10:24:04.481Z,47.30
2022-08-30T10:26:54.516Z,47.48
2022-08-30T10:29:24.862Z,47.26
2022-08-30T10:31:53.242Z,46.19
2022-08-30T10:34:31.547Z,46.75
2022-08-30T10:37:07.714Z,47.33
2022-08-30T10:39:46.795Z,47.20
2022-08-30T10:42:21.633Z,46.85
2022-08-30T10:45:13.540Z,47.36
2022-08-30T10:47:49.557Z,48.54
2022-08-30T10:50:33.857Z,48.89
2022-08-30T10:53:06.384Z,47.79
2022-08-30T10:55:37.038Z,46.44
2022-08-30T10:58:05.957Z,46.71
2022-08-30T11:01:16.581Z,46.97
2022-08-30T11:04:14.263Z,46.02
2022-08-30T11:07:10.176Z,47.20
2022-08-30T11:09:40.599Z,47.43
2022-08-30T11:12:22.134Z,46.56
2022-08-30T11:14:49.491Z,46.33
2022-08-30T11:17:45.626Z,47.28
2022-08-30T11:20:50.362Z,47.74
2022-08-30T11:23:36.134Z,47.83
2022-08-30T11:26:12.147Z,47.47
2022-08-30T11:28:48.383Z,47.70
2022-08-30T11:31:18.913Z,47.23
2022-08-30T11:33:53.622Z,46.72
2022-08-30T11:36:37.697Z,45.81
2022-08-30T11:39:07.748Z,46.04
2022-08-30T11:41:41.925Z,46.25
2022-08-30T11:44:23.045Z,45.26
2022-08-30T11:46:54.864Z,46.16
2022-08-30T11:49:23.455Z,46.81
2022-08-30T11:52:28.051Z,47.18
2022-08-30T11:55:36.605Z,46.06
2022-08-30T11:58:17.174Z,45.49
2022-08-30T12:00:52.582Z,43.95
2022-08-30T12:03:21.931Z,44.04
2022-08-30T12:05:53.253Z,44.89
2022-08-30T12:08:20.565Z,44.54
2022-08-30T12:10:51.300Z,45.44
2022-08-30T12:13:37.181Z,44.95
2022-08-30T12:16:19.971Z,45.04
2022-08-30T12:18:48.605Z,44.73
2022-08-30T12:21:21.984Z,44.71
2022-08-30T12:23:53.827Z,44.63
2022-08-30T12:26:25.117Z,44.20
2022-08-30T12:29:34.757Z,44.63
2022-08-30T12:32:13.492Z,44.39
2022-08-30T12:34:40.698Z,44.36
2022-08-30T12:37:23.347Z,44.29
2022-08-30T12:40:12.091Z,44.26
2022-08-30T12:42:51.188Z,44.42
2022-08-30T12:45:20.958Z,45.83
2022-08-30T12:47:52.690Z,46.26
2022-08-30T12:50:26.885Z,45.48
2022-08-30T12:53:01.637Z,45.72
2022-08-30T12:55:33.778Z,45.21
2022-08-30T12:58:05.047Z,43.95
2022-08-30T13:00:36.543Z,43.36
2022-08-30T13:03:33.585Z,43.35
2022-08-30T13:06:02.738Z,43.97
2022-08-30T13:08:39.462Z,43.15
2022-08-30T13:11:29.659Z,42.43
2022-08-30T13:14:25.025Z,42.72
2022-08-30T13:17:20.295Z,43.44
2022-08-30T13:20:17.208Z,42.97
2022-08-30T13:23:01.779Z,42.90
2022-08-30T13:25:30.893Z,44.39
2022-08-30T13:28:01.574Z,44.29
2022-08-30T13:30:29.584Z,43.10
2022-08-30T13:32:56.957Z,43.17
2022-08-30T13:35:25.008Z,43.21
2022-08-30T13:37:54.471Z,43.00
2022-08-30T13:40:22.852Z,43.00
2022-08-30T13:42:50.336Z,43.66
2022-08-30T13:48:06.651Z,42.90
2022-08-30T13:50:33.868Z,43.11
2022-08-30T13:53:01.248Z,43.24
2022-08-30T13:55:28.642Z,43.41
2022-08-30T13:57:57.257Z,42.56
2022-08-30T14:00:25.867Z,42.04
2022-08-30T14:02:57.770Z,40.79
2022-08-30T14:06:15.858Z,41.15
2022-08-30T14:08:46.237Z,41.59
2022-08-30T14:11:20.827Z,41.02
2022-08-30T14:16:39.476Z,41.80
2022-08-30T14:19:07.383Z,40.91
2022-08-30T14:21:35.734Z,40.19
2022-08-30T14:24:05.319Z,40.89
2022-08-30T14:26:45.764Z,41.53
2022-08-30T14:29:16.441Z,41.31
2022-08-30T14:31:43.981Z,40.55
2022-08-30T14:34:12.208Z,40.83
2022-08-30T14:36:41.814Z,40.31
2022-08-30T14:39:11.891Z,39.84
2022-08-30T14:41:45.337Z,39.38
2022-08-30T14:44:13.891Z,38.90
2022-08-30T14:46:42.025Z,39.31
2022-08-30T14:49:11.197Z,38.60
2022-08-30T14:51:39.171Z,39.42
2022-08-30T14:54:06.958Z,39.28
2022-08-30T14:56:36.906Z,39.85
2022-08-30T14:59:04.138Z,38.90
2022-08-30T15:01:32.157Z,39.66
2022-08-30T15:04:07.227Z,39.06
2022-08-30T15:06:36.482Z,38.76
2022-08-30T15:09:05.961Z,38.10
2022-08-30T15:11:33.968Z,38.50
2022-08-30T15:14:01.801Z,38.04
2022-08-30T15:16:32.101Z,38.16
2022-08-30T15:18:59.602Z,38.47
2022-08-30T15:21:39.995Z,38.43
2022-08-30T15:24:09.744Z,37.95
2022-08-30T15:26:44.273Z,37.80
2022-08-30T15:29:13.761Z,37.96
2022-08-30T15:31:41.992Z,37.69
2022-08-30T15:34:11.600Z,37.12
2022-08-30T15:36:39.604Z,36.74
2022-08-30T15:39:09.796Z,36.99
2022-08-30T15:41:37.776Z,37.44
2022-08-30T15:44:07.349Z,38.00
2022-08-30T15:46:38.078Z,37.08
2022-08-30T15:49:12.338Z,37.25
2022-08-30T15:51:41.888Z,37.22
2022-08-30T15:54:16.487Z,37.66
2022-08-30T15:56:44.214Z,37.54
2022-08-30T15:59:15.234Z,37.28
2022-08-30T16:01:45.033Z,36.48
2022-08-30T16:04:18.321Z,36.88
2022-08-30T16:06:46.512Z,36.42
2022-08-30T16:09:14.025Z,36.81
2022-08-30T16:11:41.881Z,36.86
2022-08-30T16:14:09.989Z,37.03
2022-08-30T16:16:39.994Z,36.16
2022-08-30T16:19:09.453Z,37.54
2022-08-30T16:21:37.849Z,37.50
2022-08-30T16:24:06.849Z,36.73
2022-08-30T16:26:35.187Z,36.96
2022-08-30T16:29:04.452Z,36.79
2022-08-30T16:31:34.915Z,37.52
2022-08-30T16:34:04.389Z,37.82
2022-08-30T16:36:33.144Z,37.69
2022-08-30T16:39:00.908Z,37.23
2022-08-30T16:41:28.638Z,37.56
2022-08-30T16:43:56.470Z,37.23
2022-08-30T16:46:28.130Z,37.24
2022-08-30T16:48:57.570Z,37.36
2022-08-30T16:51:27.508Z,37.28
2022-08-30T16:53:56.064Z,36.97
2022-08-30T16:56:25.134Z,36.17
2022-08-30T16:59:01.367Z,36.55
2022-08-30T17:01:37.632Z,36.78
2022-08-30T17:04:06.608Z,37.07
2022-08-30T17:06:35.737Z,36.87
2022-08-30T17:09:05.076Z,37.31
2022-08-30T17:11:33.174Z,36.72
2022-08-30T17:16:48.046Z,36.51
2022-08-30T17:19:15.421Z,36.11
2022-08-30T17:21:43.740Z,36.53
2022-08-30T17:24:12.754Z,35.91
2022-08-30T17:26:40.198Z,35.79
2022-08-30T17:29:07.974Z,36.51
2022-08-30T17:31:35.923Z,36.50
2022-08-30T17:34:05.765Z,36.45
2022-08-30T17:36:35.629Z,36.41
2022-08-30T17:39:10.538Z,36.79
2022-08-30T17:41:45.345Z,36.08
2022-08-30T17:44:18.850Z,36.12
2022-08-30T17:46:46.230Z,36.20
2022-08-30T17:49:13.695Z,36.13
2022-08-30T17:51:44.200Z,36.07
2022-08-30T17:54:13.034Z,35.75
2022-08-30T17:56:41.740Z,36.54
2022-08-30T17:59:13.214Z,35.74
2022-08-30T18:01:44.161Z,35.99
2022-08-30T18:04:12.766Z,35.72
2022-08-30T18:06:40.246Z,35.73
2022-08-30T18:09:08.568Z,35.58
2022-08-30T18:11:41.675Z,36.24
2022-08-30T18:14:11.362Z,36.21
2022-08-30T18:16:49.982Z,35.86
2022-08-30T18:19:28.990Z,36.03
2022-08-30T18:21:56.426Z,35.56
2022-08-30T18:24:24.246Z,35.57
2022-08-30T18:26:52.778Z,36.01
2022-08-30T18:29:29.487Z,35.78
2022-08-30T18:32:02.879Z,35.18
2022-08-30T18:34:30.552Z,35.61
2022-08-30T18:36:57.843Z,35.80
2022-08-30T18:39:25.955Z,35.58
2022-08-30T18:41:54.628Z,35.44
2022-08-30T18:44:28.217Z,35.37
2022-08-30T18:47:00.199Z,35.37
2022-08-30T18:49:32.554Z,35.72
2022-08-30T18:52:01.913Z,35.61
2022-08-30T18:54:30.742Z,35.65
2022-08-30T18:56:58.254Z,35.61
2022-08-30T18:59:35.333Z,35.41
2022-08-30T19:02:06.666Z,35.54
2022-08-30T19:04:35.796Z,36.40
2022-08-30T19:07:06.465Z,35.46
2022-08-30T19:09:34.160Z,35.78
2022-08-30T19:12:01.569Z,35.52
2022-08-30T19:14:28.867Z,36.51
2022-08-30T19:16:57.308Z,36.12
2022-08-30T19:19:24.566Z,36.14
2022-08-30T19:21:52.264Z,35.68
2022-08-30T19:24:20.175Z,36.63
2022-08-30T19:26:48.883Z,35.78
2022-08-30T19:29:16.390Z,36.05
2022-08-30T19:31:43.815Z,36.31
2022-08-30T19:34:11.879Z,36.24
2022-08-30T19:36:39.873Z,35.87
2022-08-30T19:39:07.216Z,36.17
2022-08-30T19:41:34.742Z,36.00
2022-08-30T19:44:03.623Z,36.42
2022-08-30T19:46:32.503Z,36.13
2022-08-30T19:49:01.204Z,36.52
2022-08-30T19:51:28.880Z,36.70
2022-08-30T19:53:59.149Z,36.75
2022-08-30T19:56:26.567Z,36.75
2022-08-30T19:58:53.952Z,37.32
2022-08-30T20:01:32.357Z,36.12
2022-08-30T20:04:02.188Z,37.04
2022-08-30T20:06:31.217Z,36.83
2022-08-30T20:09:00.275Z,36.98
2022-08-30T20:11:28.264Z,37.13
2022-08-30T20:13:55.640Z,36.66
2022-08-30T20:16:36.427Z,37.40
2022-08-30T20:19:08.584Z,37.31
2022-08-30T20:21:36.778Z,37.55
2022-08-30T20:24:05.079Z,37.40
2022-08-30T20:24:23.415Z,37.04
2022-08-30T20:26:38.594Z,37.08
2022-08-30T20:29:07.376Z,37.05
2022-08-30T20:31:35.624Z,37.76
2022-08-30T20:34:04.163Z,37.75
2022-08-30T20:36:32.465Z,37.80
2022-08-30T20:39:01.377Z,37.13
2022-08-30T20:41:30.621Z,37.28
2022-08-30T20:43:58.327Z,37.16
2022-08-30T20:46:27.034Z,37.80
2022-08-30T20:48:56.854Z,38.05
2022-08-30T20:51:24.165Z,38.97
2022-08-30T20:53:51.662Z,38.80
2022-08-30T20:56:21.724Z,39.28
2022-08-30T20:58:49.442Z,40.03
2022-08-30T21:01:17.240Z,40.33
2022-08-30T21:03:47.583Z,40.21
2022-08-30T21:06:16.613Z,40.45
2022-08-30T21:08:44.335Z,40.89
2022-08-30T21:11:12.310Z,41.42
2022-08-30T21:13:39.587Z,41.30
2022-08-30T21:16:07.476Z,41.91
2022-08-30T21:18:36.332Z,42.49
2022-08-30T21:21:15.512Z,42.30
2022-08-30T21:23:42.810Z,42.01
2022-08-30T21:26:10.524Z,42.18
2022-08-30T21:28:38.882Z,42.38
2022-08-30T21:31:08.367Z,42.87
2022-08-30T21:33:36.536Z,43.12
2022-08-30T21:36:27.091Z,43.71
2022-08-30T21:38:54.563Z,43.88
2022-08-30T21:41:28.911Z,43.62
2022-08-30T21:44:01.825Z,43.90
2022-08-30T21:46:30.379Z,43.28
2022-08-30T21:49:01.262Z,43.20
2022-08-30T21:51:29.526Z,43.92
2022-08-30T21:53:57.634Z,43.84
2022-08-30T21:56:25.181Z,44.00
2022-08-30T21:58:52.451Z,44.00
2022-08-30T22:01:23.556Z,43.94
2022-08-30T22:03:52.430Z,44.88
2022-08-30T22:06:19.759Z,44.40
2022-08-30T22:08:49.902Z,44.45
2022-08-30T22:11:21.553Z,45.05
2022-08-30T22:13:50.588Z,45.35
2022-08-30T22:16:20.779Z,46.06
2022-08-30T22:18:48.792Z,46.83
2022-08-30T22:21:19.554Z,47.43
2022-08-30T22:23:46.872Z,47.08
2022-08-30T22:26:15.996Z,47.63
2022-08-30T22:28:43.325Z,47.62
2022-08-30T22:31:12.546Z,47.15
2022-08-30T22:33:40.720Z,47.25
2022-08-30T22:36:17.419Z,47.38
2022-08-30T22:38:44.933Z,48.49
2022-08-30T22:41:16.605Z,48.54
2022-08-30T22:43:45.004Z,48.91
2022-08-30T22:46:12.578Z,48.23
2022-08-30T22:48:42.051Z,47.81
2022-08-30T22:51:10.139Z,47.78
2022-08-30T22:53:37.951Z,48.47
2022-08-30T22:56:20.080Z,48.43
2022-08-30T22:58:48.112Z,48.86
2022-08-30T23:01:29.648Z,48.92
2022-08-30T23:03:58.042Z,48.88
2022-08-30T23:06:25.370Z,49.78
2022-08-30T23:08:52.998Z,50.00
2022-08-30T23:11:20.680Z,50.19
2022-08-30T23:13:48.356Z,50.88
2022-08-30T23:16:16.519Z,51.08
2022-08-30T23:18:45.339Z,50.91
2022-08-30T23:21:19.229Z,50.41
2022-08-30T23:24:05.157Z,50.53
2022-08-30T23:26:51.240Z,50.14
2022-08-30T23:29:37.239Z,50.01
2022-08-30T23:32:23.661Z,49.75
2022-08-30T23:35:09.472Z,49.28
2022-08-30T23:37:55.419Z,49.94
2022-08-30T23:40:42.128Z,50.41
2022-08-30T23:43:28.962Z,49.79
2022-08-30T23:46:18.801Z,49.78
2022-08-30T23:49:08.747Z,49.48
2022-08-30T23:51:56.312Z,49.85
2022-08-30T23:54:42.636Z,49.71
2022-08-30T23:57:28.527Z,50.22
